Time;durP1;ratioP1;P1;durP2;ratioP2;P2;SDS_P1;SDS_P2;PMS_P1;PMS_P2;Temp;Humidity;BMP_temperature;BMP_pressure;BME280_temperature;BME280_humidity;BME280_pressure;Samples;Min_cycle;Max_cycle;Signal;HPM_P1;HPM_P2
2022/01/02 00:01:18;;;;;;;;;;;8.30;64.40;;;;;;5113239;28;19964;-64
2022/01/02 00:03:43;;;;;;;;;;;8.20;64.30;;;;;;5111507;28;19908;-64
2022/01/02 00:06:10;;;;;;;;;;;8.20;64.30;;;;;;5113578;28;19915;-64
2022/01/02 00:08:43;;;;;;;;;;;8.20;64.30;;;;;;5113608;28;19914;-64
2022/01/02 00:11:12;;;;;;;;;;;8.20;64.30;;;;;;5105404;28;19916;-64
2022/01/02 00:13:41;;;;;;;;;;;8.20;64.40;;;;;;5093115;28;19957;-64
2022/01/02 00:16:08;;;;;;;;;;;8.10;64.40;;;;;;5092898;28;19949;-65
2022/01/02 00:18:36;;;;;;;;;;;8.10;64.40;;;;;;5092998;28;19912;-65
2022/01/02 00:21:03;;;;;;;;;;;8.10;64.40;;;;;;5092986;28;20288;-64
2022/01/02 00:23:32;;;;;;;;;;;8.10;64.40;;;;;;5100783;28;19912;-64
2022/01/02 00:26:04;;;;;;;;;;;8.10;64.50;;;;;;5092705;28;19908;-65
2022/01/02 00:28:31;;;;;;;;;;;8.00;64.40;;;;;;5092640;28;20282;-64
2022/01/02 00:30:57;;;;;;;;;;;8.00;64.40;;;;;;5092977;28;19918;-65
2022/01/02 00:33:23;;;;;;;;;;;8.00;64.40;;;;;;5092961;28;20353;-64
2022/01/02 00:35:49;;;;;;;;;;;8.00;64.40;;;;;;5092791;28;20007;-64
2022/01/02 00:38:16;;;;;;;;;;;8.00;64.40;;;;;;5103644;28;20351;-64
2022/01/02 00:40:44;;;;;;;;;;;8.00;64.40;;;;;;5113149;28;19912;-64
2022/01/02 00:43:12;;;;;;;;;;;8.00;64.50;;;;;;5112945;28;19908;-64
2022/01/02 00:45:44;;;;;;;;;;;7.90;64.40;;;;;;5111284;28;19911;-64
2022/01/02 00:48:26;;;;;;;;;;;7.90;64.50;;;;;;5113130;28;20010;-64
2022/01/02 00:50:56;;;;;;;;;;;7.90;64.40;;;;;;5097277;28;19915;-64
2022/01/02 00:53:25;;;;;;;;;;;7.90;64.40;;;;;;5093235;28;19919;-64
2022/01/02 00:55:57;;;;;;;;;;;7.90;64.40;;;;;;5092640;28;20335;-64
2022/01/02 00:58:28;;;;;;;;;;;7.90;64.40;;;;;;5092567;28;19969;-64
2022/01/02 01:00:56;;;;;;;;;;;7.80;64.40;;;;;;5092824;28;19979;-64
2022/01/02 01:03:30;;;;;;;;;;;7.80;65.20;;;;;;5092181;28;20293;-64
2022/01/02 01:05:57;;;;;;;;;;;7.80;64.50;;;;;;5092463;28;20289;-64
2022/01/02 01:08:23;;;;;;;;;;;7.80;64.60;;;;;;5095188;28;19908;-64
2022/01/02 01:10:50;;;;;;;;;;;7.80;64.60;;;;;;5096631;28;20397;-64
2022/01/02 01:13:16;;;;;;;;;;;7.80;64.60;;;;;;5096547;28;19915;-64
2022/01/02 01:15:43;;;;;;;;;;;7.80;64.60;;;;;;5095686;28;19935;-64
2022/01/02 01:18:08;;;;;;;;;;;7.70;64.60;;;;;;5095412;28;20284;-64
2022/01/02 01:20:37;;;;;;;;;;;7.70;64.60;;;;;;5096727;28;19915;-63
2022/01/02 01:23:03;;;;;;;;;;;7.70;64.60;;;;;;5096375;28;19915;-64
2022/01/02 01:25:29;;;;;;;;;;;7.70;64.60;;;;;;5096324;28;19908;-64
2022/01/02 01:27:56;;;;;;;;;;;7.70;64.60;;;;;;5096228;28;20369;-63
2022/01/02 01:30:23;;;;;;;;;;;7.70;64.60;;;;;;5096166;28;20045;-64
2022/01/02 01:32:49;;;;;;;;;;;7.70;64.70;;;;;;5096011;28;19908;-64
2022/01/02 01:35:15;;;;;;;;;;;7.70;64.70;;;;;;5096197;28;20396;-64
2022/01/02 01:37:40;;;;;;;;;;;7.70;64.80;;;;;;5095601;28;19916;-65
2022/01/02 01:40:07;;;;;;;;;;;7.60;64.90;;;;;;5096023;28;20377;-64
2022/01/02 01:42:37;;;;;;;;;;;7.70;65.20;;;;;;5112424;28;19914;-64
2022/01/02 01:45:28;;;;;;;;;;;7.60;65.30;;;;;;5115067;28;20007;-64
2022/01/02 01:48:01;;;;;;;;;;;7.70;65.40;;;;;;5116124;28;19974;-64
2022/01/02 01:50:35;;;;;;;;;;;7.70;65.30;;;;;;5115948;28;19908;-64
2022/01/02 01:53:02;;;;;;;;;;;7.70;66.00;;;;;;5107433;28;19916;-64
2022/01/02 01:55:28;;;;;;;;;;;7.70;65.40;;;;;;5095803;28;20003;-65
2022/01/02 01:57:54;;;;;;;;;;;7.70;65.40;;;;;;5095639;28;20415;-64
2022/01/02 02:00:21;;;;;;;;;;;7.70;65.40;;;;;;5095696;28;19912;-64
2022/01/02 02:02:46;;;;;;;;;;;7.70;65.50;;;;;;5095503;28;19912;-64
2022/01/02 02:05:12;;;;;;;;;;;7.70;65.50;;;;;;5095389;28;19957;-64
2022/01/02 02:07:40;;;;;;;;;;;7.70;65.40;;;;;;5095231;28;19965;-64
2022/01/02 02:10:15;;;;;;;;;;;7.70;65.40;;;;;;5095230;28;19955;-64
2022/01/02 02:12:43;;;;;;;;;;;7.70;65.40;;;;;;5094023;28;19916;-64
2022/01/02 02:15:09;;;;;;;;;;;7.60;65.30;;;;;;5095237;28;19912;-64
2022/01/02 02:17:35;;;;;;;;;;;7.70;65.30;;;;;;5094633;28;20011;-64
2022/01/02 02:20:30;;;;;;;;;;;7.60;65.20;;;;;;5092680;28;20003;-64
2022/01/02 02:22:57;;;;;;;;;;;7.60;65.10;;;;;;5052523;28;19962;-64
2022/01/02 02:25:26;;;;;;;;;;;7.60;65.10;;;;;;5058633;28;20000;-64
2022/01/02 02:27:57;;;;;;;;;;;7.60;65.30;;;;;;5057636;28;19923;-64
2022/01/02 02:30:23;;;;;;;;;;;7.60;65.40;;;;;;5052535;28;20284;-64
2022/01/02 02:32:49;;;;;;;;;;;7.60;65.30;;;;;;5052569;28;19959;-64
2022/01/02 02:35:15;;;;;;;;;;;7.50;65.20;;;;;;5052529;28;19979;-64
2022/01/02 02:37:42;;;;;;;;;;;7.50;65.20;;;;;;5052092;28;19912;-64
2022/01/02 02:40:09;;;;;;;;;;;7.50;65.10;;;;;;5052284;28;19909;-64
2022/01/02 02:42:47;;;;;;;;;;;7.50;65.10;;;;;;5065351;28;19983;-64
2022/01/02 02:51:03;;;;;;;;;;;7.40;65.30;;;;;;5052245;28;19935;-64
2022/01/02 02:53:29;;;;;;;;;;;7.50;65.60;;;;;;5052035;28;20386;-64
2022/01/02 02:55:57;;;;;;;;;;;7.50;65.70;;;;;;5052156;28;19916;-64
2022/01/02 03:00:59;;;;;;;;;;;7.60;66.00;;;;;;5094622;28;20002;-65
2022/01/02 03:03:24;;;;;;;;;;;7.60;66.00;;;;;;5095223;28;19995;-64
2022/01/02 03:05:50;;;;;;;;;;;7.60;65.90;;;;;;5095103;28;20020;-63
2022/01/02 03:08:15;;;;;;;;;;;7.70;66.00;;;;;;5094914;28;20357;-64
2022/01/02 03:10:41;;;;;;;;;;;7.70;66.00;;;;;;5094899;28;19916;-64
2022/01/02 03:13:06;;;;;;;;;;;7.80;66.00;;;;;;5094970;28;19908;-64
2022/01/02 03:15:32;;;;;;;;;;;7.80;66.00;;;;;;5094906;28;19908;-64
2022/01/02 03:17:57;;;;;;;;;;;7.80;66.00;;;;;;5094693;28;19931;-64
2022/01/02 03:20:23;;;;;;;;;;;7.90;66.10;;;;;;5094643;28;19912;-64
2022/01/02 03:22:49;;;;;;;;;;;8.00;66.20;;;;;;5094822;28;19909;-64
2022/01/02 03:25:14;;;;;;;;;;;8.00;66.20;;;;;;5094792;28;20380;-64
2022/01/02 03:27:40;;;;;;;;;;;8.00;66.20;;;;;;5094550;28;19919;-63
2022/01/02 03:30:07;;;;;;;;;;;8.10;66.20;;;;;;5094205;28;19959;-64
2022/01/02 03:32:32;;;;;;;;;;;8.10;66.20;;;;;;5094533;28;19908;-63
2022/01/02 03:34:58;;;;;;;;;;;8.20;66.20;;;;;;5094597;28;19908;-64
2022/01/02 03:37:28;;;;;;;;;;;8.30;66.20;;;;;;5094393;28;19951;-64
2022/01/02 03:39:54;;;;;;;;;;;8.30;66.10;;;;;;5096629;28;20292;-65
2022/01/02 03:42:19;;;;;;;;;;;8.30;66.10;;;;;;5094363;28;19957;-64
2022/01/02 03:44:45;;;;;;;;;;;8.30;66.00;;;;;;5094344;28;19908;-64
2022/01/02 03:47:11;;;;;;;;;;;8.40;66.00;;;;;;5094392;28;19998;-64
2022/01/02 03:49:36;;;;;;;;;;;8.40;65.80;;;;;;5094361;28;19940;-65
2022/01/02 03:52:03;;;;;;;;;;;8.40;65.70;;;;;;5094309;28;19908;-64
2022/01/02 03:54:29;;;;;;;;;;;8.40;65.60;;;;;;5094187;28;20325;-64
2022/01/02 03:56:54;;;;;;;;;;;8.40;65.50;;;;;;5093976;28;19966;-65
2022/01/02 03:59:20;;;;;;;;;;;8.40;65.40;;;;;;5094192;28;19948;-64
2022/01/02 04:01:46;;;;;;;;;;;8.40;65.50;;;;;;5094045;28;20285;-65
2022/01/02 04:04:11;;;;;;;;;;;8.40;65.40;;;;;;5094346;28;19919;-64
2022/01/02 04:06:37;;;;;;;;;;;8.40;65.40;;;;;;5094110;28;19908;-65
2022/01/02 04:09:03;;;;;;;;;;;8.40;65.50;;;;;;5093920;28;19912;-64
2022/01/02 04:11:29;;;;;;;;;;;8.40;65.40;;;;;;5093874;28;20286;-65
2022/01/02 04:13:54;;;;;;;;;;;8.50;65.50;;;;;;5093838;28;19938;-64
2022/01/02 04:16:20;;;;;;;;;;;8.50;65.50;;;;;;5093687;28;20011;-64
2022/01/02 04:18:45;;;;;;;;;;;8.50;65.50;;;;;;5093676;28;20010;-64
2022/01/02 04:21:13;;;;;;;;;;;8.50;65.30;;;;;;5092946;28;20217;-64
2022/01/02 04:23:38;;;;;;;;;;;8.50;65.30;;;;;;5093747;28;19908;-64
2022/01/02 04:26:05;;;;;;;;;;;8.60;65.30;;;;;;5093548;28;19970;-64
2022/01/02 04:28:30;;;;;;;;;;;8.60;65.30;;;;;;5093953;28;19916;-64
2022/01/02 04:30:56;;;;;;;;;;;8.60;65.20;;;;;;5093588;28;19994;-63
2022/01/02 04:33:21;;;;;;;;;;;8.60;65.20;;;;;;5093438;28;20281;-64
2022/01/02 04:35:47;;;;;;;;;;;8.70;65.20;;;;;;5093569;28;19954;-64
2022/01/02 04:38:14;;;;;;;;;;;8.70;65.20;;;;;;5108701;28;20369;-65
2022/01/02 04:40:40;;;;;;;;;;;8.70;65.10;;;;;;5113832;28;19908;-64
2022/01/02 04:43:06;;;;;;;;;;;8.70;65.10;;;;;;5113109;28;19949;-64
2022/01/02 04:45:31;;;;;;;;;;;8.70;65.00;;;;;;5113766;28;20346;-65
2022/01/02 04:47:57;;;;;;;;;;;8.80;65.00;;;;;;5113784;28;19908;-64
2022/01/02 04:50:23;;;;;;;;;;;8.80;64.90;;;;;;5113045;28;19994;-64
2022/01/02 04:52:48;;;;;;;;;;;8.80;64.80;;;;;;5093377;28;19997;-65
2022/01/02 04:55:14;;;;;;;;;;;8.80;64.80;;;;;;5093344;28;20288;-64
2022/01/02 04:57:39;;;;;;;;;;;8.80;64.70;;;;;;5092016;28;19908;-64
2022/01/02 05:00:06;;;;;;;;;;;8.80;64.60;;;;;;5093214;28;20381;-64
2022/01/02 05:02:31;;;;;;;;;;;8.80;64.50;;;;;;5093241;28;19958;-64
2022/01/02 05:04:57;;;;;;;;;;;8.80;64.50;;;;;;5093363;28;19940;-64
2022/01/02 05:07:23;;;;;;;;;;;8.80;64.40;;;;;;5093148;28;19919;-65
2022/01/02 05:09:48;;;;;;;;;;;8.80;64.50;;;;;;5091884;28;20334;-64
2022/01/02 05:12:14;;;;;;;;;;;8.80;64.50;;;;;;5093242;28;19915;-64
2022/01/02 05:14:39;;;;;;;;;;;8.80;64.50;;;;;;5093218;28;19908;-64
2022/01/02 05:17:05;;;;;;;;;;;8.80;64.60;;;;;;5092985;28;19920;-65
2022/01/02 05:19:31;;;;;;;;;;;8.80;64.60;;;;;;5092953;28;20298;-64
2022/01/02 05:21:57;;;;;;;;;;;8.80;64.50;;;;;;5093167;28;19965;-65
2022/01/02 05:24:22;;;;;;;;;;;8.90;64.60;;;;;;5093207;28;19908;-65
2022/01/02 05:26:48;;;;;;;;;;;8.90;64.60;;;;;;5093091;28;19912;-65
2022/01/02 05:29:15;;;;;;;;;;;8.90;64.60;;;;;;5093138;28;19916;-64
2022/01/02 05:31:40;;;;;;;;;;;8.90;64.60;;;;;;5093175;28;20281;-64
2022/01/02 05:34:06;;;;;;;;;;;8.90;65.40;;;;;;5093118;28;19912;-64
2022/01/02 05:36:32;;;;;;;;;;;8.90;64.60;;;;;;5106114;28;19919;-64
2022/01/02 05:38:57;;;;;;;;;;;8.90;64.70;;;;;;5113292;28;19912;-64
2022/01/02 05:41:23;;;;;;;;;;;8.90;64.60;;;;;;5107673;28;19919;-64
2022/01/02 05:43:48;;;;;;;;;;;8.90;64.70;;;;;;5092961;28;19916;-64
2022/01/02 05:46:15;;;;;;;;;;;8.90;64.70;;;;;;5092974;28;19929;-65
2022/01/02 05:48:41;;;;;;;;;;;8.90;64.80;;;;;;5092974;28;20284;-64
2022/01/02 05:51:06;;;;;;;;;;;9.00;64.90;;;;;;5092742;28;19912;-64
2022/01/02 05:53:32;;;;;;;;;;;9.00;64.90;;;;;;5094068;28;19952;-64
2022/01/02 05:55:58;;;;;;;;;;;9.00;64.80;;;;;;5096642;28;19908;-64
2022/01/02 05:58:23;;;;;;;;;;;8.90;64.80;;;;;;5096490;28;20258;-65
2022/01/02 06:00:49;;;;;;;;;;;9.00;64.80;;;;;;5096494;28;20004;-64
2022/01/02 06:03:15;;;;;;;;;;;9.00;64.70;;;;;;5096417;28;19915;-64
2022/01/02 06:05:40;;;;;;;;;;;9.00;64.70;;;;;;5096142;28;19908;-64
2022/01/02 06:08:06;;;;;;;;;;;9.00;64.70;;;;;;5096284;28;19916;-64
2022/01/02 06:10:31;;;;;;;;;;;8.90;64.60;;;;;;5096314;28;20262;-64
2022/01/02 06:12:57;;;;;;;;;;;8.90;64.60;;;;;;5096200;28;19915;-64
2022/01/02 06:15:22;;;;;;;;;;;8.90;64.60;;;;;;5096146;28;19931;-65
2022/01/02 06:17:48;;;;;;;;;;;9.00;64.70;;;;;;5094623;28;19920;-64
2022/01/02 06:20:14;;;;;;;;;;;9.00;64.80;;;;;;5096070;28;19999;-64
2022/01/02 06:22:39;;;;;;;;;;;9.00;64.80;;;;;;5095930;28;19958;-64
2022/01/02 06:25:05;;;;;;;;;;;9.00;64.80;;;;;;5096081;28;19931;-64
2022/01/02 06:27:31;;;;;;;;;;;9.00;64.80;;;;;;5095968;28;20366;-64
2022/01/02 06:29:56;;;;;;;;;;;9.00;64.70;;;;;;5095953;28;19915;-65
2022/01/02 06:32:22;;;;;;;;;;;9.00;64.70;;;;;;5095813;28;19908;-64
2022/01/02 06:34:48;;;;;;;;;;;9.00;64.70;;;;;;5097276;28;19919;-64
2022/01/02 06:37:14;;;;;;;;;;;9.10;64.80;;;;;;5095554;28;19938;-64
2022/01/02 06:39:40;;;;;;;;;;;9.10;64.80;;;;;;5095648;28;19912;-64
2022/01/02 06:42:05;;;;;;;;;;;9.10;64.80;;;;;;5095684;28;19912;-64
2022/01/02 06:44:31;;;;;;;;;;;9.10;64.70;;;;;;5095654;28;19919;-65
2022/01/02 06:46:56;;;;;;;;;;;9.10;64.60;;;;;;5094282;28;19915;-64
2022/01/02 06:49:22;;;;;;;;;;;9.10;64.60;;;;;;5095553;28;19917;-64
2022/01/02 06:51:48;;;;;;;;;;;9.10;64.50;;;;;;5095424;28;20285;-64
2022/01/02 06:54:13;;;;;;;;;;;9.10;64.30;;;;;;5095492;28;19958;-64
2022/01/02 06:56:39;;;;;;;;;;;9.00;64.10;;;;;;5095387;28;20258;-64
2022/01/02 06:59:05;;;;;;;;;;;9.00;64.10;;;;;;5095256;28;19919;-64
2022/01/02 07:01:30;;;;;;;;;;;8.90;64.00;;;;;;5095049;28;19916;-64
2022/01/02 07:03:56;;;;;;;;;;;9.00;64.20;;;;;;5093905;28;19966;-65
2022/01/02 07:06:22;;;;;;;;;;;9.00;64.30;;;;;;5094424;28;19958;-65
2022/01/02 07:08:47;;;;;;;;;;;8.90;64.40;;;;;;5095152;28;19908;-64
2022/01/02 07:11:13;;;;;;;;;;;9.00;65.30;;;;;;5094999;28;20224;-64
2022/01/02 07:13:40;;;;;;;;;;;9.00;64.40;;;;;;5095018;28;19991;-64
2022/01/02 07:16:06;;;;;;;;;;;9.00;64.40;;;;;;5094848;28;20031;-65
2022/01/02 07:18:32;;;;;;;;;;;8.90;65.00;;;;;;5094783;28;20409;-64
2022/01/02 07:20:57;;;;;;;;;;;8.90;64.20;;;;;;5094871;28;19908;-64
2022/01/02 07:23:23;;;;;;;;;;;8.90;64.20;;;;;;5094849;28;19912;-64
2022/01/02 07:25:49;;;;;;;;;;;8.90;64.20;;;;;;5094788;28;19908;-64
2022/01/02 07:28:14;;;;;;;;;;;8.90;64.30;;;;;;5094708;28;19912;-64
2022/01/02 07:30:40;;;;;;;;;;;8.90;64.30;;;;;;5094763;28;19908;-64
2022/01/02 07:33:05;;;;;;;;;;;8.90;64.40;;;;;;5102378;28;19915;-64
2022/01/02 07:35:31;;;;;;;;;;;8.90;64.50;;;;;;5103678;28;19916;-64
2022/01/02 07:37:57;;;;;;;;;;;9.00;64.70;;;;;;5094423;28;20005;-64
2022/01/02 07:40:24;;;;;;;;;;;9.00;64.80;;;;;;5094516;28;19908;-64
2022/01/02 07:42:50;;;;;;;;;;;9.00;64.90;;;;;;5094553;28;19915;-64
2022/01/02 07:45:17;;;;;;;;;;;9.10;64.90;;;;;;5094466;28;19908;-64
2022/01/02 07:47:42;;;;;;;;;;;9.10;64.90;;;;;;5094415;28;19908;-64
2022/01/02 07:50:08;;;;;;;;;;;9.10;64.80;;;;;;5094296;28;20268;-65
2022/01/02 07:52:34;;;;;;;;;;;9.20;64.80;;;;;;5094369;28;19908;-64
2022/01/02 07:54:59;;;;;;;;;;;9.20;64.90;;;;;;5094494;28;19999;-64
2022/01/02 07:57:25;;;;;;;;;;;9.20;64.90;;;;;;5094245;28;20451;-65
2022/01/02 07:59:50;;;;;;;;;;;9.30;65.00;;;;;;5093920;28;19912;-65
2022/01/02 08:02:16;;;;;;;;;;;9.30;65.00;;;;;;5094124;28;19908;-64
2022/01/02 08:04:41;;;;;;;;;;;9.40;65.00;;;;;;5094074;28;19916;-64
2022/01/02 08:07:07;;;;;;;;;;;9.40;65.00;;;;;;5093961;28;20305;-65
2022/01/02 08:09:33;;;;;;;;;;;9.40;65.00;;;;;;5093943;28;19995;-64
2022/01/02 08:11:58;;;;;;;;;;;9.40;65.00;;;;;;5094008;28;19909;-65
2022/01/02 08:14:24;;;;;;;;;;;9.50;65.10;;;;;;5094038;28;20385;-64
2022/01/02 08:16:49;;;;;;;;;;;9.50;65.10;;;;;;5093620;28;19931;-64
2022/01/02 08:19:15;;;;;;;;;;;9.50;65.10;;;;;;5093797;28;20317;-65
2022/01/02 08:21:41;;;;;;;;;;;9.50;65.00;;;;;;5093816;28;19912;-64
2022/01/02 08:24:06;;;;;;;;;;;9.50;64.90;;;;;;5093765;28;19915;-65
2022/01/02 08:26:32;;;;;;;;;;;9.50;64.80;;;;;;5093738;28;19943;-64
2022/01/02 08:29:01;;;;;;;;;;;9.50;64.80;;;;;;5093709;28;20311;-64
2022/01/02 08:31:27;;;;;;;;;;;9.60;64.90;;;;;;5099361;28;20431;-65
2022/01/02 08:33:53;;;;;;;;;;;9.60;64.80;;;;;;5113626;28;19912;-64
2022/01/02 08:36:19;;;;;;;;;;;9.60;64.80;;;;;;5113859;28;20283;-64
2022/01/02 08:38:46;;;;;;;;;;;9.70;64.80;;;;;;5113893;28;19912;-64
2022/01/02 08:41:12;;;;;;;;;;;9.70;64.80;;;;;;5113839;28;19950;-64
2022/01/02 08:43:38;;;;;;;;;;;9.70;64.70;;;;;;5113826;28;19951;-64
2022/01/02 08:46:03;;;;;;;;;;;9.80;64.80;;;;;;5113518;28;20341;-64
2022/01/02 08:48:29;;;;;;;;;;;9.80;64.60;;;;;;5113801;28;19912;-64
2022/01/02 08:50:55;;;;;;;;;;;9.90;64.50;;;;;;5113772;28;19908;-64
2022/01/02 08:53:20;;;;;;;;;;;9.90;64.40;;;;;;5113844;28;19908;-64
2022/01/02 08:55:46;;;;;;;;;;;9.90;64.30;;;;;;5113749;28;20019;-64
2022/01/02 08:58:11;;;;;;;;;;;10.00;64.20;;;;;;5113660;28;19919;-64
2022/01/02 09:00:37;;;;;;;;;;;10.00;64.00;;;;;;5103422;28;19940;-65
2022/01/02 09:03:03;;;;;;;;;;;10.00;64.00;;;;;;5093300;28;19913;-64
2022/01/02 09:05:29;;;;;;;;;;;10.10;64.10;;;;;;5091959;28;19908;-65
2022/01/02 09:07:55;;;;;;;;;;;10.10;64.00;;;;;;5093267;28;19915;-65
2022/01/02 09:10:21;;;;;;;;;;;10.20;63.90;;;;;;5093271;28;20301;-64
2022/01/02 09:12:47;;;;;;;;;;;10.20;63.90;;;;;;5093197;28;19908;-64
2022/01/02 09:15:13;;;;;;;;;;;10.30;63.80;;;;;;5093265;28;19912;-65
2022/01/02 09:17:38;;;;;;;;;;;10.30;63.70;;;;;;5093116;28;19920;-65
2022/01/02 09:20:06;;;;;;;;;;;10.40;63.90;;;;;;5093339;28;19912;-65
2022/01/02 09:22:31;;;;;;;;;;;10.50;64.00;;;;;;5093269;28;19922;-65
2022/01/02 09:24:57;;;;;;;;;;;10.50;63.80;;;;;;5093590;28;20010;-64
2022/01/02 09:27:23;;;;;;;;;;;10.60;63.70;;;;;;5092986;28;19908;-64
2022/01/02 09:29:48;;;;;;;;;;;10.70;63.60;;;;;;5097054;28;19912;-65
2022/01/02 09:32:14;;;;;;;;;;;10.80;63.60;;;;;;5096998;28;19908;-65
2022/01/02 09:34:40;;;;;;;;;;;10.80;63.60;;;;;;5096883;28;19912;-64
2022/01/02 09:37:05;;;;;;;;;;;10.90;63.60;;;;;;5096826;28;19919;-65
2022/01/02 09:39:31;;;;;;;;;;;11.00;63.60;;;;;;5096746;28;20396;-64
2022/01/02 09:41:57;;;;;;;;;;;11.00;63.50;;;;;;5096698;28;20254;-65
2022/01/02 09:44:23;;;;;;;;;;;11.10;63.40;;;;;;5129673;27;19908;-65
2022/01/02 09:46:51;;;;;;;;;;;11.10;63.30;;;;;;5096729;28;19916;-64
2022/01/02 09:49:17;;;;;;;;;;;11.20;63.20;;;;;;5096418;28;20010;-66
2022/01/02 09:51:42;;;;;;;;;;;11.30;63.20;;;;;;5096511;28;19956;-64
2022/01/02 09:54:09;;;;;;;;;;;11.30;63.20;;;;;;5096486;28;19908;-65
2022/01/02 09:56:34;;;;;;;;;;;11.40;63.10;;;;;;5096587;28;19908;-65
2022/01/02 09:59:02;;;;;;;;;;;11.40;63.20;;;;;;5096382;28;20404;-65
2022/01/02 10:01:29;;;;;;;;;;;11.50;63.10;;;;;;5096319;28;20358;-64
2022/01/02 10:03:57;;;;;;;;;;;11.60;62.90;;;;;;5096333;28;19912;-65
2022/01/02 10:06:46;;;;;;;;;;;11.60;62.60;;;;;;5096295;28;19930;-65
2022/01/02 10:09:30;;;;;;;;;;;11.60;62.30;;;;;;5096302;28;19912;-66
2022/01/02 10:12:14;;;;;;;;;;;11.70;62.20;;;;;;5096166;28;19909;-64
2022/01/02 10:14:40;;;;;;;;;;;11.70;62.10;;;;;;5128862;27;19911;-65
2022/01/02 10:17:05;;;;;;;;;;;11.80;62.10;;;;;;5095911;28;19924;-65
2022/01/02 10:19:36;;;;;;;;;;;11.80;62.10;;;;;;5095930;28;19920;-65
2022/01/02 10:22:02;;;;;;;;;;;11.80;62.00;;;;;;5095955;28;19977;-65
2022/01/02 10:24:29;;;;;;;;;;;11.80;61.80;;;;;;5095884;28;19908;-65
2022/01/02 10:27:12;;;;;;;;;;;11.90;61.70;;;;;;5095814;28;19909;-65
2022/01/02 10:29:41;;;;;;;;;;;11.90;61.50;;;;;;5107406;28;19908;-65
2022/01/02 10:32:26;;;;;;;;;;;11.90;61.50;;;;;;5095955;28;19908;-66
2022/01/02 10:34:51;;;;;;;;;;;11.90;61.30;;;;;;5095761;28;19951;-65
2022/01/02 10:37:26;;;;;;;;;;;12.00;61.40;;;;;;5095592;28;19919;-65
2022/01/02 10:39:52;;;;;;;;;;;12.00;61.30;;;;;;5094414;28;19965;-65
2022/01/02 10:42:18;;;;;;;;;;;12.00;61.30;;;;;;5095509;28;19908;-65
2022/01/02 10:44:44;;;;;;;;;;;12.10;61.50;;;;;;5095645;28;19915;-65
2022/01/02 10:47:15;;;;;;;;;;;12.10;61.60;;;;;;5095393;28;19908;-65
2022/01/02 10:49:50;;;;;;;;;;;12.20;61.50;;;;;;5095393;28;19912;-65
2022/01/02 10:52:16;;;;;;;;;;;12.20;61.30;;;;;;5095473;28;19939;-65
2022/01/02 10:54:42;;;;;;;;;;;12.30;61.30;;;;;;5095403;28;19931;-65
2022/01/02 10:57:08;;;;;;;;;;;12.30;61.30;;;;;;5095319;28;20357;-65
2022/01/02 10:59:34;;;;;;;;;;;12.40;61.30;;;;;;5095281;28;20289;-65
2022/01/02 11:02:00;;;;;;;;;;;12.40;61.10;;;;;;5095293;28;19908;-65
2022/01/02 11:04:30;;;;;;;;;;;12.40;61.00;;;;;;5095090;28;19919;-64
2022/01/02 11:06:58;;;;;;;;;;;12.50;61.10;;;;;;5095143;28;20370;-65
2022/01/02 11:09:23;;;;;;;;;;;12.50;61.00;;;;;;5095098;28;19915;-65
2022/01/02 11:11:49;;;;;;;;;;;12.50;60.70;;;;;;5094950;28;19908;-65
2022/01/02 11:14:15;;;;;;;;;;;12.60;60.70;;;;;;5094990;28;19908;-65
2022/01/02 11:16:41;;;;;;;;;;;12.60;60.70;;;;;;5094874;28;19920;-65
2022/01/02 11:19:09;;;;;;;;;;;12.70;60.70;;;;;;5094922;28;19935;-65
2022/01/02 11:21:35;;;;;;;;;;;12.70;60.70;;;;;;5094684;28;20391;-65
2022/01/02 11:24:07;;;;;;;;;;;12.80;60.90;;;;;;5094821;28;19915;-65
2022/01/02 11:26:38;;;;;;;;;;;12.90;60.80;;;;;;5094634;28;19908;-65
2022/01/02 11:29:04;;;;;;;;;;;13.00;60.60;;;;;;5113881;28;19914;-65
2022/01/02 11:31:34;;;;;;;;;;;13.00;60.30;;;;;;5115059;28;19991;-65
2022/01/02 11:34:00;;;;;;;;;;;13.10;60.20;;;;;;5101770;28;19965;-65
2022/01/02 11:36:28;;;;;;;;;;;13.20;60.20;;;;;;5094447;28;20301;-65
2022/01/02 11:39:00;;;;;;;;;;;13.20;60.00;;;;;;5094483;28;20261;-65
2022/01/02 11:41:36;;;;;;;;;;;13.20;59.70;;;;;;5094354;28;19999;-64
2022/01/02 11:44:02;;;;;;;;;;;13.20;59.60;;;;;;5094439;28;19920;-65
2022/01/02 11:46:29;;;;;;;;;;;13.20;59.60;;;;;;5094423;28;19908;-65
2022/01/02 11:49:16;;;;;;;;;;;13.30;59.70;;;;;;5092931;28;19912;-64
2022/01/02 11:51:50;;;;;;;;;;;13.30;59.60;;;;;;5094101;28;20034;-65
2022/01/02 11:54:49;;;;;;;;;;;13.40;59.50;;;;;;5094183;28;19956;-65
2022/01/02 11:57:18;;;;;;;;;;;13.40;59.30;;;;;;5093538;28;19920;-65
2022/01/02 11:59:44;;;;;;;;;;;13.40;59.20;;;;;;5094063;28;19961;-65
2022/01/02 12:02:12;;;;;;;;;;;13.40;59.20;;;;;;5094092;28;19995;-65
2022/01/02 12:04:56;;;;;;;;;;;13.40;59.20;;;;;;5093948;28;19935;-64
2022/01/02 12:07:37;;;;;;;;;;;13.50;59.10;;;;;;5093877;28;19916;-65
2022/01/02 12:10:24;;;;;;;;;;;13.50;59.20;;;;;;5092630;28;19908;-65
2022/01/02 12:13:16;;;;;;;;;;;13.50;59.20;;;;;;5086753;28;19908;-64
2022/01/02 12:15:42;;;;;;;;;;;13.50;59.30;;;;;;5094053;27;19916;-66
2022/01/02 12:18:12;;;;;;;;;;;13.50;59.10;;;;;;5092993;28;19912;-65
2022/01/02 12:20:49;;;;;;;;;;;13.50;58.80;;;;;;5093242;28;19973;-65
2022/01/02 12:23:30;;;;;;;;;;;13.50;58.70;;;;;;5104755;28;19912;-65
2022/01/02 12:26:09;;;;;;;;;;;13.40;58.60;;;;;;5113229;28;19914;-65
2022/01/02 12:28:38;;;;;;;;;;;13.40;58.70;;;;;;5113275;28;20357;-65
2022/01/02 12:31:04;;;;;;;;;;;13.40;58.80;;;;;;5113224;28;19908;-65
2022/01/02 12:33:30;;;;;;;;;;;13.40;59.10;;;;;;5111964;28;20277;-65
2022/01/02 12:35:56;;;;;;;;;;;13.40;59.20;;;;;;5099448;28;20002;-65
2022/01/02 12:38:22;;;;;;;;;;;13.50;59.10;;;;;;5092502;28;20014;-65
2022/01/02 12:40:49;;;;;;;;;;;13.50;59.00;;;;;;5092785;28;19965;-65
2022/01/02 12:43:22;;;;;;;;;;;13.50;59.10;;;;;;5091500;28;19908;-65
2022/01/02 12:45:56;;;;;;;;;;;13.60;59.00;;;;;;5092855;28;20340;-65
2022/01/02 12:48:32;;;;;;;;;;;13.60;58.80;;;;;;5092671;28;19986;-65
2022/01/02 12:51:10;;;;;;;;;;;13.60;58.60;;;;;;5092586;28;19912;-65
2022/01/02 12:53:36;;;;;;;;;;;13.50;58.60;;;;;;5092582;28;20289;-65
2022/01/02 12:56:02;;;;;;;;;;;13.50;58.50;;;;;;5091234;28;19908;-64
2022/01/02 12:58:27;;;;;;;;;;;13.50;58.50;;;;;;5092498;28;20295;-65
2022/01/02 13:00:53;;;;;;;;;;;13.40;58.40;;;;;;5091270;28;19912;-65
2022/01/02 13:03:19;;;;;;;;;;;13.40;58.40;;;;;;5093167;28;19919;-64
2022/01/02 13:05:51;;;;;;;;;;;13.30;58.50;;;;;;5096484;28;19972;-64
2022/01/02 13:08:22;;;;;;;;;;;13.30;58.60;;;;;;5096486;28;20008;-64
2022/01/02 13:10:47;;;;;;;;;;;13.20;59.20;;;;;;5096706;28;19908;-64
2022/01/02 13:13:25;;;;;;;;;;;13.20;58.60;;;;;;5096550;28;20338;-64
2022/01/02 13:15:51;;;;;;;;;;;13.10;58.60;;;;;;5108554;28;19919;-64
2022/01/02 13:18:17;;;;;;;;;;;13.10;58.60;;;;;;5096483;28;19916;-64
2022/01/02 13:20:43;;;;;;;;;;;13.10;58.70;;;;;;5096245;28;19935;-64
2022/01/02 13:23:08;;;;;;;;;;;13.10;58.80;;;;;;5096446;28;19969;-64
2022/01/02 13:25:40;;;;;;;;;;;13.00;58.60;;;;;;5104834;28;19916;-64
2022/01/02 13:28:05;;;;;;;;;;;13.00;58.60;;;;;;5108295;28;20419;-64
2022/01/02 13:30:37;;;;;;;;;;;13.00;58.70;;;;;;5114718;28;19916;-64
2022/01/02 13:33:03;;;;;;;;;;;12.90;58.70;;;;;;5116621;28;20369;-64
2022/01/02 13:35:29;;;;;;;;;;;12.90;58.70;;;;;;5116654;28;19943;-63
2022/01/02 13:37:59;;;;;;;;;;;12.90;58.80;;;;;;5116557;28;19936;-64
2022/01/02 13:40:29;;;;;;;;;;;12.80;58.80;;;;;;5112683;28;19920;-64
2022/01/02 13:42:55;;;;;;;;;;;12.80;58.80;;;;;;5110159;28;20427;-64
2022/01/02 13:45:28;;;;;;;;;;;12.70;58.80;;;;;;5101478;28;19923;-64
2022/01/02 13:47:55;;;;;;;;;;;12.70;58.80;;;;;;5096001;28;19934;-64
2022/01/02 13:50:37;;;;;;;;;;;12.60;58.90;;;;;;5095753;28;20369;-64
2022/01/02 13:53:21;;;;;;;;;;;12.60;59.00;;;;;;5095682;28;19915;-64
2022/01/02 13:55:51;;;;;;;;;;;12.60;59.00;;;;;;5095674;28;20008;-64
2022/01/02 13:58:20;;;;;;;;;;;12.60;59.10;;;;;;5095744;28;20414;-65
2022/01/02 14:00:46;;;;;;;;;;;12.50;59.20;;;;;;5095680;28;19908;-64
2022/01/02 14:03:28;;;;;;;;;;;12.50;59.30;;;;;;5095721;28;20050;-65
2022/01/02 14:05:55;;;;;;;;;;;12.40;59.20;;;;;;5095676;28;19922;-64
2022/01/02 14:08:20;;;;;;;;;;;12.50;59.40;;;;;;5096117;28;19908;-66
2022/01/02 14:10:46;;;;;;;;;;;12.40;59.40;;;;;;5104215;27;19923;-65
2022/01/02 14:13:14;;;;;;;;;;;12.40;59.40;;;;;;5095729;28;19915;-64
2022/01/02 14:15:40;;;;;;;;;;;12.40;59.40;;;;;;5108131;28;19908;-64
2022/01/02 14:18:06;;;;;;;;;;;12.40;59.50;;;;;;5115694;28;19927;-64
2022/01/02 14:20:35;;;;;;;;;;;12.30;59.50;;;;;;5115773;28;20016;-64
2022/01/02 14:23:04;;;;;;;;;;;12.30;59.50;;;;;;5105866;28;19907;-64
2022/01/02 14:25:29;;;;;;;;;;;12.20;59.50;;;;;;5108385;28;19912;-65
2022/01/02 14:27:55;;;;;;;;;;;12.20;59.60;;;;;;5095369;28;19908;-65
2022/01/02 14:30:22;;;;;;;;;;;12.20;59.70;;;;;;5095047;28;20408;-64
2022/01/02 14:32:48;;;;;;;;;;;12.20;59.70;;;;;;5095495;28;19908;-64
2022/01/02 14:35:14;;;;;;;;;;;12.10;59.70;;;;;;5094944;28;19908;-64
2022/01/02 14:37:41;;;;;;;;;;;12.10;59.80;;;;;;5094894;28;20005;-64